sensor_id;sensor_type;location;lat;lon;timestamp;pressure;altitude;pressure_sealevel;temperature;humidity
59971;BME280;45825;45.434;9.116;2022-08-27T00:00:26;99687.06;;;24.99;69.93
59971;BME280;45825;45.434;9.116;2022-08-27T00:02:51;99700.25;;;24.94;70.23
59971;BME280;45825;45.434;9.116;2022-08-27T00:05:18;99695.22;;;24.84;70.54
59971;BME280;45825;45.434;9.116;2022-08-27T00:07:44;99697.06;;;24.83;70.21
59971;BME280;45825;45.434;9.116;2022-08-27T00:10:14;99694.38;;;24.83;69.94
59971;BME280;45825;45.434;9.116;2022-08-27T00:12:40;99694.25;;;24.92;69.76
59971;BME280;45825;45.434;9.116;2022-08-27T00:15:06;99688.59;;;24.87;69.40
59971;BME280;45825;45.434;9.116;2022-08-27T00:17:33;99690.19;;;24.81;69.01
59971;BME280;45825;45.434;9.116;2022-08-27T00:19:58;99692.47;;;24.77;69.22
59971;BME280;45825;45.434;9.116;2022-08-27T00:22:24;99688.00;;;24.69;69.34
59971;BME280;45825;45.434;9.116;2022-08-27T00:24:49;99696.06;;;24.69;68.73
59971;BME280;45825;45.434;9.116;2022-08-27T00:27:14;99684.94;;;24.73;68.65
59971;BME280;45825;45.434;9.116;2022-08-27T00:29:40;99693.09;;;24.79;67.97
59971;BME280;45825;45.434;9.116;2022-08-27T00:32:05;99686.78;;;24.72;68.34
59971;BME280;45825;45.434;9.116;2022-08-27T00:34:33;99685.81;;;24.58;67.33
59971;BME280;45825;45.434;9.116;2022-08-27T00:36:58;99688.81;;;24.48;68.42
59971;BME280;45825;45.434;9.116;2022-08-27T00:39:24;99688.44;;;24.51;66.88
59971;BME280;45825;45.434;9.116;2022-08-27T00:41:49;99677.75;;;24.58;65.98
59971;BME280;45825;45.434;9.116;2022-08-27T00:44:14;99686.03;;;24.57;65.77
59971;BME280;45825;45.434;9.116;2022-08-27T00:46:47;99678.91;;;24.70;65.28
59971;BME280;45825;45.434;9.116;2022-08-27T00:49:20;99684.03;;;24.65;65.22
59971;BME280;45825;45.434;9.116;2022-08-27T00:51:53;99683.69;;;24.53;65.90
59971;BME280;45825;45.434;9.116;2022-08-27T00:54:20;99684.66;;;24.46;66.19
59971;BME280;45825;45.434;9.116;2022-08-27T00:56:46;99676.41;;;24.47;65.93
59971;BME280;45825;45.434;9.116;2022-08-27T00:59:12;99681.75;;;24.84;64.45
59971;BME280;45825;45.434;9.116;2022-08-27T01:01:41;99678.06;;;24.70;64.41
59971;BME280;45825;45.434;9.116;2022-08-27T01:04:27;99678.03;;;24.63;63.18
59971;BME280;45825;45.434;9.116;2022-08-27T01:06:53;99673.97;;;24.52;64.28
59971;BME280;45825;45.434;9.116;2022-08-27T01:09:20;99678.97;;;24.55;64.04
59971;BME280;45825;45.434;9.116;2022-08-27T01:11:46;99680.78;;;24.92;63.06
59971;BME280;45825;45.434;9.116;2022-08-27T01:14:12;99679.75;;;24.71;62.70
59971;BME280;45825;45.434;9.116;2022-08-27T01:16:41;99674.88;;;24.60;62.83
59971;BME280;45825;45.434;9.116;2022-08-27T01:19:22;99677.88;;;24.50;62.92
59971;BME280;45825;45.434;9.116;2022-08-27T01:22:20;99675.44;;;24.55;62.87
59971;BME280;45825;45.434;9.116;2022-08-27T01:24:48;99671.34;;;24.59;62.85
59971;BME280;45825;45.434;9.116;2022-08-27T01:27:18;99672.88;;;24.68;62.35
59971;BME280;45825;45.434;9.116;2022-08-27T01:29:45;99679.16;;;24.76;61.82
59971;BME280;45825;45.434;9.116;2022-08-27T01:32:24;99669.56;;;24.66;62.25
59971;BME280;45825;45.434;9.116;2022-08-27T01:34:50;99672.31;;;24.51;62.80
59971;BME280;45825;45.434;9.116;2022-08-27T01:37:17;99674.03;;;24.59;62.37
59971;BME280;45825;45.434;9.116;2022-08-27T01:39:43;99673.66;;;24.62;61.87
59971;BME280;45825;45.434;9.116;2022-08-27T01:42:14;99670.97;;;24.62;61.98
59971;BME280;45825;45.434;9.116;2022-08-27T01:44:49;99679.56;;;24.51;62.36
59971;BME280;45825;45.434;9.116;2022-08-27T01:47:16;99675.88;;;24.37;62.96
59971;BME280;45825;45.434;9.116;2022-08-27T01:49:41;99682.41;;;24.27;63.27
59971;BME280;45825;45.434;9.116;2022-08-27T01:52:07;99678.44;;;24.23;63.82
59971;BME280;45825;45.434;9.116;2022-08-27T01:54:32;99683.66;;;24.32;63.64
59971;BME280;45825;45.434;9.116;2022-08-27T01:56:58;99677.63;;;24.45;63.18
59971;BME280;45825;45.434;9.116;2022-08-27T01:59:23;99676.59;;;24.67;62.71
59971;BME280;45825;45.434;9.116;2022-08-27T02:01:50;99674.53;;;24.48;63.22
59971;BME280;45825;45.434;9.116;2022-08-27T02:04:16;99670.13;;;24.40;62.93
59971;BME280;45825;45.434;9.116;2022-08-27T02:06:41;99673.00;;;24.38;62.47
59971;BME280;45825;45.434;9.116;2022-08-27T02:09:06;99670.41;;;24.45;62.05
59971;BME280;45825;45.434;9.116;2022-08-27T02:11:31;99675.84;;;24.52;61.70
59971;BME280;45825;45.434;9.116;2022-08-27T02:13:57;99670.63;;;24.50;61.37
59971;BME280;45825;45.434;9.116;2022-08-27T02:16:22;99671.53;;;24.36;61.76
59971;BME280;45825;45.434;9.116;2022-08-27T02:18:47;99672.09;;;24.31;62.04
59971;BME280;45825;45.434;9.116;2022-08-27T02:21:13;99672.56;;;24.35;61.26
59971;BME280;45825;45.434;9.116;2022-08-27T02:23:42;99664.88;;;24.53;61.08
59971;BME280;45825;45.434;9.116;2022-08-27T02:26:09;99675.31;;;24.63;60.48
59971;BME280;45825;45.434;9.116;2022-08-27T02:28:35;99665.84;;;24.46;60.74
59971;BME280;45825;45.434;9.116;2022-08-27T02:31:00;99673.38;;;24.35;61.34
59971;BME280;45825;45.434;9.116;2022-08-27T02:33:26;99674.22;;;24.36;61.28
59971;BME280;45825;45.434;9.116;2022-08-27T02:35:51;99677.88;;;24.50;60.94
59971;BME280;45825;45.434;9.116;2022-08-27T02:38:17;99682.94;;;24.60;60.45
59971;BME280;45825;45.434;9.116;2022-08-27T02:40:44;99681.97;;;24.46;61.12
59971;BME280;45825;45.434;9.116;2022-08-27T02:43:09;99687.44;;;24.37;61.03
59971;BME280;45825;45.434;9.116;2022-08-27T02:45:34;99692.28;;;24.27;61.22
59971;BME280;45825;45.434;9.116;2022-08-27T02:48:02;99694.81;;;24.28;61.25
59971;BME280;45825;45.434;9.116;2022-08-27T02:50:27;99687.19;;;24.32;61.24
59971;BME280;45825;45.434;9.116;2022-08-27T02:52:53;99692.25;;;24.42;60.83
59971;BME280;45825;45.434;9.116;2022-08-27T02:55:18;99687.69;;;24.58;60.24
59971;BME280;45825;45.434;9.116;2022-08-27T02:57:44;99692.13;;;24.87;59.38
59971;BME280;45825;45.434;9.116;2022-08-27T03:00:12;99695.69;;;24.73;59.53
59971;BME280;45825;45.434;9.116;2022-08-27T03:02:38;99688.78;;;24.63;59.91
59971;BME280;45825;45.434;9.116;2022-08-27T03:05:05;99695.41;;;24.67;59.89
59971;BME280;45825;45.434;9.116;2022-08-27T03:07:30;99689.59;;;24.64;60.27
59971;BME280;45825;45.434;9.116;2022-08-27T03:09:55;99696.25;;;24.46;63.80
59971;BME280;45825;45.434;9.116;2022-08-27T03:12:21;99685.22;;;24.41;65.10
59971;BME280;45825;45.434;9.116;2022-08-27T03:14:46;99680.50;;;24.65;64.78
59971;BME280;45825;45.434;9.116;2022-08-27T03:17:12;99687.81;;;24.71;65.78
59971;BME280;45825;45.434;9.116;2022-08-27T03:19:55;99683.19;;;24.65;66.51
59971;BME280;45825;45.434;9.116;2022-08-27T03:22:21;99690.41;;;24.42;67.79
59971;BME280;45825;45.434;9.116;2022-08-27T03:24:46;99688.16;;;24.24;69.62
59971;BME280;45825;45.434;9.116;2022-08-27T03:27:11;99688.91;;;24.18;70.03
59971;BME280;45825;45.434;9.116;2022-08-27T03:29:37;99692.50;;;24.25;69.83
59971;BME280;45825;45.434;9.116;2022-08-27T03:32:04;99686.56;;;24.30;69.46
59971;BME280;45825;45.434;9.116;2022-08-27T03:34:30;99697.53;;;24.13;70.20
59971;BME280;45825;45.434;9.116;2022-08-27T03:36:55;99701.16;;;24.06;71.60
59971;BME280;45825;45.434;9.116;2022-08-27T03:39:20;99699.94;;;24.08;71.83
59971;BME280;45825;45.434;9.116;2022-08-27T03:41:46;99700.59;;;24.10;71.85
59971;BME280;45825;45.434;9.116;2022-08-27T03:44:11;99699.50;;;24.05;71.17
59971;BME280;45825;45.434;9.116;2022-08-27T03:46:37;99691.88;;;23.93;71.26
59971;BME280;45825;45.434;9.116;2022-08-27T03:49:03;99698.91;;;23.94;70.85
59971;BME280;45825;45.434;9.116;2022-08-27T03:51:28;99699.00;;;24.01;70.40
59971;BME280;45825;45.434;9.116;2022-08-27T03:53:54;99692.25;;;23.90;70.65
59971;BME280;45825;45.434;9.116;2022-08-27T03:56:19;99697.91;;;23.80;71.05
59971;BME280;45825;45.434;9.116;2022-08-27T03:58:44;99697.06;;;23.65;71.75
59971;BME280;45825;45.434;9.116;2022-08-27T04:01:10;99702.53;;;23.71;71.40
59971;BME280;45825;45.434;9.116;2022-08-27T04:03:36;99696.84;;;23.51;71.66
59971;BME280;45825;45.434;9.116;2022-08-27T04:06:01;99706.94;;;23.49;71.74
59971;BME280;45825;45.434;9.116;2022-08-27T04:08:27;99696.22;;;23.64;70.83
59971;BME280;45825;45.434;9.116;2022-08-27T04:10:54;99689.75;;;23.74;70.37
59971;BME280;45825;45.434;9.116;2022-08-27T04:13:20;99688.81;;;23.66;71.01
59971;BME280;45825;45.434;9.116;2022-08-27T04:15:48;99685.56;;;23.71;70.58
59971;BME280;45825;45.434;9.116;2022-08-27T04:18:16;99685.88;;;23.61;71.58
59971;BME280;45825;45.434;9.116;2022-08-27T04:20:42;99689.56;;;23.60;71.50
59971;BME280;45825;45.434;9.116;2022-08-27T04:23:08;99693.25;;;23.44;72.40
59971;BME280;45825;45.434;9.116;2022-08-27T04:25:33;99692.69;;;23.34;73.10
59971;BME280;45825;45.434;9.116;2022-08-27T04:27:59;99694.47;;;23.71;71.70
59971;BME280;45825;45.434;9.116;2022-08-27T04:30:24;99699.66;;;23.58;71.45
59971;BME280;45825;45.434;9.116;2022-08-27T04:32:49;99698.44;;;23.61;71.65
59971;BME280;45825;45.434;9.116;2022-08-27T04:37:50;99700.00;;;23.40;72.41
59971;BME280;45825;45.434;9.116;2022-08-27T04:40:15;99694.84;;;23.38;72.57
59971;BME280;45825;45.434;9.116;2022-08-27T04:42:41;99703.22;;;23.35;72.73
59971;BME280;45825;45.434;9.116;2022-08-27T04:45:07;99702.06;;;23.53;71.84
59971;BME280;45825;45.434;9.116;2022-08-27T04:47:33;99700.41;;;23.67;71.24
59971;BME280;45825;45.434;9.116;2022-08-27T04:49:58;99698.16;;;23.40;72.26
59971;BME280;45825;45.434;9.116;2022-08-27T04:52:24;99699.56;;;23.13;74.06
59971;BME280;45825;45.434;9.116;2022-08-27T04:54:49;99707.47;;;23.29;73.25
59971;BME280;45825;45.434;9.116;2022-08-27T04:57:15;99702.59;;;23.48;72.37
59971;BME280;45825;45.434;9.116;2022-08-27T04:59:40;99703.13;;;23.28;73.14
59971;BME280;45825;45.434;9.116;2022-08-27T05:02:06;99702.31;;;23.05;74.23
59971;BME280;45825;45.434;9.116;2022-08-27T05:04:35;99708.41;;;23.13;73.97
59971;BME280;45825;45.434;9.116;2022-08-27T05:07:02;99714.16;;;23.34;73.14
59971;BME280;45825;45.434;9.116;2022-08-27T05:09:28;99720.00;;;23.37;72.96
59971;BME280;45825;45.434;9.116;2022-08-27T05:11:53;99721.13;;;23.43;72.84
59971;BME280;45825;45.434;9.116;2022-08-27T05:14:20;99716.56;;;23.43;73.10
59971;BME280;45825;45.434;9.116;2022-08-27T05:16:46;99708.41;;;23.37;72.77
59971;BME280;45825;45.434;9.116;2022-08-27T05:19:12;99707.97;;;23.10;74.11
59971;BME280;45825;45.434;9.116;2022-08-27T05:21:45;99696.41;;;22.86;75.26
59971;BME280;45825;45.434;9.116;2022-08-27T05:24:11;99710.34;;;22.81;75.23
59971;BME280;45825;45.434;9.116;2022-08-27T05:26:36;99709.59;;;22.96;74.74
59971;BME280;45825;45.434;9.116;2022-08-27T05:29:03;99706.53;;;22.99;74.40
59971;BME280;45825;45.434;9.116;2022-08-27T05:31:29;99711.31;;;23.12;74.11
59971;BME280;45825;45.434;9.116;2022-08-27T05:33:55;99717.22;;;23.30;73.35
59971;BME280;45825;45.434;9.116;2022-08-27T05:36:27;99725.16;;;23.00;74.34
59971;BME280;45825;45.434;9.116;2022-08-27T05:38:54;99729.06;;;22.89;75.53
59971;BME280;45825;45.434;9.116;2022-08-27T05:41:23;99728.06;;;22.91;75.68
59971;BME280;45825;45.434;9.116;2022-08-27T05:43:50;99724.13;;;23.01;75.33
59971;BME280;45825;45.434;9.116;2022-08-27T05:46:18;99718.34;;;23.13;74.68
59971;BME280;45825;45.434;9.116;2022-08-27T05:48:44;99721.03;;;23.13;74.24
59971;BME280;45825;45.434;9.116;2022-08-27T05:53:39;99722.69;;;23.14;74.04
59971;BME280;45825;45.434;9.116;2022-08-27T05:56:11;99727.09;;;23.07;74.05
59971;BME280;45825;45.434;9.116;2022-08-27T05:58:37;99734.59;;;23.11;73.99
59971;BME280;45825;45.434;9.116;2022-08-27T06:01:21;99737.94;;;23.13;73.93
59971;BME280;45825;45.434;9.116;2022-08-27T06:03:47;99745.28;;;23.20;73.61
59971;BME280;45825;45.434;9.116;2022-08-27T06:06:13;99748.06;;;23.26;73.11
59971;BME280;45825;45.434;9.116;2022-08-27T06:08:38;99751.19;;;23.38;72.91
59971;BME280;45825;45.434;9.116;2022-08-27T06:11:05;99746.41;;;23.49;72.39
59971;BME280;45825;45.434;9.116;2022-08-27T06:13:33;99758.72;;;23.58;72.32
59971;BME280;45825;45.434;9.116;2022-08-27T06:16:03;99759.66;;;23.65;71.94
59971;BME280;45825;45.434;9.116;2022-08-27T06:18:31;99756.88;;;23.74;71.43
59971;BME280;45825;45.434;9.116;2022-08-27T06:20:56;99769.28;;;23.75;71.13
59971;BME280;45825;45.434;9.116;2022-08-27T06:23:21;99763.84;;;23.83;70.63
59971;BME280;45825;45.434;9.116;2022-08-27T06:25:47;99762.28;;;23.89;70.30
59971;BME280;45825;45.434;9.116;2022-08-27T06:28:12;99757.84;;;23.96;70.21
59971;BME280;45825;45.434;9.116;2022-08-27T06:30:37;99759.75;;;24.02;69.39
59971;BME280;45825;45.434;9.116;2022-08-27T06:33:03;99761.75;;;24.08;69.45
59971;BME280;45825;45.434;9.116;2022-08-27T06:35:28;99758.13;;;24.16;69.21
59971;BME280;45825;45.434;9.116;2022-08-27T06:37:54;99761.16;;;23.98;69.40
59971;BME280;45825;45.434;9.116;2022-08-27T06:40:20;99759.22;;;24.07;69.70
59971;BME280;45825;45.434;9.116;2022-08-27T06:42:45;99761.19;;;24.13;69.96
59971;BME280;45825;45.434;9.116;2022-08-27T06:45:10;99762.75;;;24.22;69.64
59971;BME280;45825;45.434;9.116;2022-08-27T06:47:36;99768.78;;;24.24;68.94
59971;BME280;45825;45.434;9.116;2022-08-27T06:50:01;99765.53;;;24.29;68.29
59971;BME280;45825;45.434;9.116;2022-08-27T06:52:27;99762.91;;;24.36;68.76
59971;BME280;45825;45.434;9.116;2022-08-27T06:54:52;99760.13;;;24.44;67.59
59971;BME280;45825;45.434;9.116;2022-08-27T06:57:18;99768.94;;;24.23;66.82
59971;BME280;45825;45.434;9.116;2022-08-27T06:59:43;99760.88;;;24.38;66.72
59971;BME280;45825;45.434;9.116;2022-08-27T07:02:09;99759.69;;;24.40;65.82
59971;BME280;45825;45.434;9.116;2022-08-27T07:04:34;99754.09;;;24.27;65.19
59971;BME280;45825;45.434;9.116;2022-08-27T07:07:01;99760.50;;;24.26;64.96
59971;BME280;45825;45.434;9.116;2022-08-27T07:09:26;99756.91;;;24.34;65.42
59971;BME280;45825;45.434;9.116;2022-08-27T07:11:54;99763.81;;;24.43;63.18
59971;BME280;45825;45.434;9.116;2022-08-27T07:14:21;99754.84;;;24.36;63.63
59971;BME280;45825;45.434;9.116;2022-08-27T07:16:46;99759.16;;;24.15;66.16
59971;BME280;45825;45.434;9.116;2022-08-27T07:19:12;99764.53;;;24.15;64.68
59971;BME280;45825;45.434;9.116;2022-08-27T07:21:38;99760.13;;;23.99;64.42
59971;BME280;45825;45.434;9.116;2022-08-27T07:24:04;99764.13;;;24.03;65.90
59971;BME280;45825;45.434;9.116;2022-08-27T07:26:33;99756.44;;;24.00;65.22
59971;BME280;45825;45.434;9.116;2022-08-27T07:28:59;99759.50;;;23.97;66.96
59971;BME280;45825;45.434;9.116;2022-08-27T07:31:25;99761.63;;;24.02;65.26
59971;BME280;45825;45.434;9.116;2022-08-27T07:33:50;99762.44;;;24.02;65.78
59971;BME280;45825;45.434;9.116;2022-08-27T07:36:15;99768.38;;;23.97;65.64
59971;BME280;45825;45.434;9.116;2022-08-27T07:38:41;99772.56;;;24.00;66.67
59971;BME280;45825;45.434;9.116;2022-08-27T07:41:08;99778.69;;;24.09;67.75
59971;BME280;45825;45.434;9.116;2022-08-27T07:43:34;99778.41;;;24.19;66.41
59971;BME280;45825;45.434;9.116;2022-08-27T07:46:19;99784.34;;;24.14;67.20
59971;BME280;45825;45.434;9.116;2022-08-27T07:48:46;99786.66;;;24.17;66.09
59971;BME280;45825;45.434;9.116;2022-08-27T07:51:13;99780.00;;;24.13;67.83
59971;BME280;45825;45.434;9.116;2022-08-27T07:53:39;99794.00;;;24.08;67.98
59971;BME280;45825;45.434;9.116;2022-08-27T07:56:06;99798.34;;;24.09;68.20
59971;BME280;45825;45.434;9.116;2022-08-27T07:58:33;99801.66;;;24.11;67.84
59971;BME280;45825;45.434;9.116;2022-08-27T08:00:58;99802.78;;;24.17;67.62
59971;BME280;45825;45.434;9.116;2022-08-27T08:03:24;99802.94;;;24.31;67.26
59971;BME280;45825;45.434;9.116;2022-08-27T08:05:49;99801.09;;;24.31;66.18
59971;BME280;45825;45.434;9.116;2022-08-27T08:08:18;99811.66;;;24.33;68.67
59971;BME280;45825;45.434;9.116;2022-08-27T08:10:43;99813.91;;;24.44;63.51
59971;BME280;45825;45.434;9.116;2022-08-27T08:13:08;99814.41;;;24.54;61.19
59971;BME280;45825;45.434;9.116;2022-08-27T08:15:34;99822.19;;;24.64;59.30
59971;BME280;45825;45.434;9.116;2022-08-27T08:18:00;99817.63;;;24.65;60.42
59971;BME280;45825;45.434;9.116;2022-08-27T08:20:25;99828.13;;;24.60;60.75
59971;BME280;45825;45.434;9.116;2022-08-27T08:22:50;99837.69;;;24.62;59.80
59971;BME280;45825;45.434;9.116;2022-08-27T08:25:16;99841.75;;;24.73;59.46
59971;BME280;45825;45.434;9.116;2022-08-27T08:27:41;99840.94;;;24.73;60.27
59971;BME280;45825;45.434;9.116;2022-08-27T08:30:09;99846.03;;;24.67;61.20
59971;BME280;45825;45.434;9.116;2022-08-27T08:32:34;99858.66;;;24.67;60.90
59971;BME280;45825;45.434;9.116;2022-08-27T08:35:00;99852.50;;;24.73;59.69
59971;BME280;45825;45.434;9.116;2022-08-27T08:37:26;99852.03;;;24.69;60.83
59971;BME280;45825;45.434;9.116;2022-08-27T08:39:52;99857.34;;;24.78;59.92
59971;BME280;45825;45.434;9.116;2022-08-27T08:45:06;99865.88;;;24.81;60.53
59971;BME280;45825;45.434;9.116;2022-08-27T08:47:52;99873.56;;;24.69;63.80
59971;BME280;45825;45.434;9.116;2022-08-27T08:50:48;99881.19;;;24.66;61.68
59971;BME280;45825;45.434;9.116;2022-08-27T08:53:20;99870.44;;;24.66;61.33
59971;BME280;45825;45.434;9.116;2022-08-27T08:56:00;99870.22;;;24.67;59.94
59971;BME280;45825;45.434;9.116;2022-08-27T08:58:36;99872.53;;;24.70;60.50
59971;BME280;45825;45.434;9.116;2022-08-27T09:01:06;99880.53;;;24.79;60.40
59971;BME280;45825;45.434;9.116;2022-08-27T09:03:35;99883.97;;;24.88;60.29
59971;BME280;45825;45.434;9.116;2022-08-27T09:08:33;99887.28;;;25.05;58.13
59971;BME280;45825;45.434;9.116;2022-08-27T09:13:31;99880.78;;;24.99;58.46
59971;BME280;45825;45.434;9.116;2022-08-27T09:16:00;99881.03;;;25.04;57.61
59971;BME280;45825;45.434;9.116;2022-08-27T09:18:26;99887.78;;;25.15;55.94
59971;BME280;45825;45.434;9.116;2022-08-27T09:21:01;99880.94;;;25.13;58.23
59971;BME280;45825;45.434;9.116;2022-08-27T09:23:46;99883.69;;;25.19;55.26
59971;BME280;45825;45.434;9.116;2022-08-27T09:26:23;99876.00;;;25.16;57.79
59971;BME280;45825;45.434;9.116;2022-08-27T09:29:04;99872.66;;;25.14;56.44
59971;BME280;45825;45.434;9.116;2022-08-27T09:32:03;99871.66;;;25.15;56.65
59971;BME280;45825;45.434;9.116;2022-08-27T09:34:37;99872.06;;;25.19;56.32
59971;BME280;45825;45.434;9.116;2022-08-27T09:42:24;99867.38;;;25.43;54.22
59971;BME280;45825;45.434;9.116;2022-08-27T09:44:54;99884.06;;;25.53;54.48
59971;BME280;45825;45.434;9.116;2022-08-27T09:47:20;99875.41;;;25.58;56.65
59971;BME280;45825;45.434;9.116;2022-08-27T09:49:46;99866.72;;;25.62;55.12
59971;BME280;45825;45.434;9.116;2022-08-27T09:52:35;99874.44;;;25.65;56.29
59971;BME280;45825;45.434;9.116;2022-08-27T09:55:01;99869.59;;;25.83;54.07
59971;BME280;45825;45.434;9.116;2022-08-27T09:57:34;99866.28;;;25.80;55.98
59971;BME280;45825;45.434;9.116;2022-08-27T10:00:00;99865.06;;;25.90;54.51
59971;BME280;45825;45.434;9.116;2022-08-27T10:02:26;99855.63;;;26.01;53.85
59971;BME280;45825;45.434;9.116;2022-08-27T10:04:56;99852.09;;;26.00;54.23
59971;BME280;45825;45.434;9.116;2022-08-27T10:07:46;99861.66;;;26.31;52.49
59971;BME280;45825;45.434;9.116;2022-08-27T10:13:19;99853.03;;;26.49;51.69
59971;BME280;45825;45.434;9.116;2022-08-27T10:15:53;99842.06;;;26.58;52.22
59971;BME280;45825;45.434;9.116;2022-08-27T10:18:29;99848.81;;;26.82;50.30
59971;BME280;45825;45.434;9.116;2022-08-27T10:21:06;99856.22;;;27.29;49.71
59971;BME280;45825;45.434;9.116;2022-08-27T10:23:47;99850.88;;;27.69;54.38
59971;BME280;45825;45.434;9.116;2022-08-27T10:26:20;99852.66;;;28.43;44.72
59971;BME280;45825;45.434;9.116;2022-08-27T10:28:57;99852.50;;;28.77;45.25
59971;BME280;45825;45.434;9.116;2022-08-27T10:34:14;99849.41;;;28.66;46.33
59971;BME280;45825;45.434;9.116;2022-08-27T10:36:57;99849.81;;;28.83;46.51
59971;BME280;45825;45.434;9.116;2022-08-27T10:39:52;99849.50;;;29.05;44.81
59971;BME280;45825;45.434;9.116;2022-08-27T10:47:43;99836.75;;;29.38;42.36
59971;BME280;45825;45.434;9.116;2022-08-27T10:50:28;99836.34;;;29.34;43.81
59971;BME280;45825;45.434;9.116;2022-08-27T10:53:04;99833.66;;;29.34;43.90
59971;BME280;45825;45.434;9.116;2022-08-27T10:55:47;99823.63;;;29.67;43.45
59971;BME280;45825;45.434;9.116;2022-08-27T10:58:50;99830.13;;;29.84;40.40
59971;BME280;45825;45.434;9.116;2022-08-27T11:01:44;99818.78;;;29.94;39.54
59971;BME280;45825;45.434;9.116;2022-08-27T11:04:24;99824.91;;;30.27;40.26
59971;BME280;45825;45.434;9.116;2022-08-27T11:06:59;99822.03;;;30.59;41.11
59971;BME280;45825;45.434;9.116;2022-08-27T11:09:35;99826.94;;;30.69;39.66
59971;BME280;45825;45.434;9.116;2022-08-27T11:12:09;99822.84;;;31.09;38.50
59971;BME280;45825;45.434;9.116;2022-08-27T11:17:17;99819.84;;;32.13;37.32
59971;BME280;45825;45.434;9.116;2022-08-27T11:19:51;99814.59;;;32.76;35.66
59971;BME280;45825;45.434;9.116;2022-08-27T11:22:31;99808.09;;;32.48;36.78
59971;BME280;45825;45.434;9.116;2022-08-27T11:27:33;99803.09;;;32.57;35.28
59971;BME280;45825;45.434;9.116;2022-08-27T11:30:07;99808.78;;;32.55;36.07
59971;BME280;45825;45.434;9.116;2022-08-27T11:43:49;99801.72;;;32.42;34.34
59971;BME280;45825;45.434;9.116;2022-08-27T11:46:25;99796.84;;;33.02;34.76
59971;BME280;45825;45.434;9.116;2022-08-27T11:49:02;99794.13;;;32.03;35.86
59971;BME280;45825;45.434;9.116;2022-08-27T11:51:35;99781.88;;;32.18;34.98
59971;BME280;45825;45.434;9.116;2022-08-27T11:54:08;99781.41;;;32.21;33.82
59971;BME280;45825;45.434;9.116;2022-08-27T11:56:38;99776.25;;;32.78;34.06
59971;BME280;45825;45.434;9.116;2022-08-27T12:01:35;99761.41;;;32.85;34.69
59971;BME280;45825;45.434;9.116;2022-08-27T12:06:51;99772.44;;;32.79;36.05
59971;BME280;45825;45.434;9.116;2022-08-27T12:09:20;99771.34;;;32.63;34.72
59971;BME280;45825;45.434;9.116;2022-08-27T12:11:54;99771.13;;;32.64;36.23
59971;BME280;45825;45.434;9.116;2022-08-27T12:14:42;99770.38;;;32.28;34.72
59971;BME280;45825;45.434;9.116;2022-08-27T12:17:37;99768.22;;;31.89;35.04
59971;BME280;45825;45.434;9.116;2022-08-27T12:20:41;99760.13;;;32.59;35.08
59971;BME280;45825;45.434;9.116;2022-08-27T12:23:09;99761.06;;;32.82;33.85
59971;BME280;45825;45.434;9.116;2022-08-27T12:26:16;99762.44;;;32.96;35.27
59971;BME280;45825;45.434;9.116;2022-08-27T12:28:43;99765.31;;;32.89;34.83
59971;BME280;45825;45.434;9.116;2022-08-27T12:31:08;99767.47;;;33.05;33.29
59971;BME280;45825;45.434;9.116;2022-08-27T12:33:40;99765.66;;;32.93;32.41
59971;BME280;45825;45.434;9.116;2022-08-27T12:36:14;99765.91;;;32.22;33.63
59971;BME280;45825;45.434;9.116;2022-08-27T12:38:47;99780.31;;;31.81;35.23
59971;BME280;45825;45.434;9.116;2022-08-27T12:41:26;99766.47;;;31.47;34.99
59971;BME280;45825;45.434;9.116;2022-08-27T12:44:05;99770.13;;;31.88;36.06
59971;BME280;45825;45.434;9.116;2022-08-27T12:46:31;99767.75;;;31.68;34.58
59971;BME280;45825;45.434;9.116;2022-08-27T12:49:01;99776.56;;;30.55;37.21
59971;BME280;45825;45.434;9.116;2022-08-27T12:51:33;99772.78;;;30.56;39.71
59971;BME280;45825;45.434;9.116;2022-08-27T13:14:34;99745.91;;;30.73;37.39
59971;BME280;45825;45.434;9.116;2022-08-27T13:17:07;99752.66;;;30.94;36.35
59971;BME280;45825;45.434;9.116;2022-08-27T13:19:36;99751.38;;;31.08;35.72
59971;BME280;45825;45.434;9.116;2022-08-27T13:22:07;99742.06;;;31.04;37.01
59971;BME280;45825;45.434;9.116;2022-08-27T13:24:48;99742.81;;;31.24;38.83
59971;BME280;45825;45.434;9.116;2022-08-27T13:27:14;99728.16;;;31.25;35.69
59971;BME280;45825;45.434;9.116;2022-08-27T13:29:41;99734.28;;;31.08;36.94
59971;BME280;45825;45.434;9.116;2022-08-27T13:32:07;99733.00;;;31.22;38.41
59971;BME280;45825;45.434;9.116;2022-08-27T13:34:36;99730.41;;;31.40;38.38
59971;BME280;45825;45.434;9.116;2022-08-27T13:37:05;99725.81;;;31.52;36.84
59971;BME280;45825;45.434;9.116;2022-08-27T13:39:36;99727.22;;;31.55;37.74
59971;BME280;45825;45.434;9.116;2022-08-27T13:42:03;99718.25;;;31.30;38.20
59971;BME280;45825;45.434;9.116;2022-08-27T13:44:34;99722.41;;;31.45;38.85
59971;BME280;45825;45.434;9.116;2022-08-27T13:47:03;99719.91;;;31.55;38.47
59971;BME280;45825;45.434;9.116;2022-08-27T13:49:32;99726.31;;;30.83;41.38
59971;BME280;45825;45.434;9.116;2022-08-27T13:52:18;99725.00;;;30.73;41.96
59971;BME280;45825;45.434;9.116;2022-08-27T13:54:49;99723.78;;;30.38;43.15
59971;BME280;45825;45.434;9.116;2022-08-27T13:57:26;99716.50;;;30.20;43.02
59971;BME280;45825;45.434;9.116;2022-08-27T13:59:54;99718.72;;;30.11;45.65
59971;BME280;45825;45.434;9.116;2022-08-27T14:02:27;99711.63;;;29.92;44.31
59971;BME280;45825;45.434;9.116;2022-08-27T14:05:07;99710.19;;;29.89;45.28
59971;BME280;45825;45.434;9.116;2022-08-27T14:07:41;99715.38;;;29.72;43.32
59971;BME280;45825;45.434;9.116;2022-08-27T14:10:34;99707.75;;;29.44;41.81
59971;BME280;45825;45.434;9.116;2022-08-27T14:13:05;99704.63;;;29.40;42.36
59971;BME280;45825;45.434;9.116;2022-08-27T14:15:37;99711.09;;;29.39;42.31
59971;BME280;45825;45.434;9.116;2022-08-27T14:20:50;99702.03;;;29.52;44.71
59971;BME280;45825;45.434;9.116;2022-08-27T14:23:16;99708.44;;;29.58;43.34
59971;BME280;45825;45.434;9.116;2022-08-27T14:25:42;99706.59;;;29.33;43.19